createdAt,value
2019-01-28T00:02:17.846Z,98509.67
2019-01-28T00:04:56.686Z,98508.75
2019-01-28T00:07:31.998Z,98516.84
2019-01-28T00:10:07.148Z,98513.92
2019-01-28T00:12:42.660Z,98524.67
2019-01-28T00:15:16.047Z,98519.12
2019-01-28T00:17:46.101Z,98517.72
2019-01-28T00:20:17.670Z,98528.01
2019-01-28T00:22:47.617Z,98529.73
2019-01-28T00:25:19.680Z,98530.59
2019-01-28T00:27:54.343Z,98532.33
2019-01-28T00:30:26.277Z,98536.13
2019-01-28T00:33:00.767Z,98535.32
2019-01-28T00:35:33.102Z,98534.05
2019-01-28T00:38:07.966Z,98535.27
2019-01-28T00:40:50.813Z,98544.83
2019-01-28T00:43:21.284Z,98540.97
2019-01-28T00:45:57.528Z,98537.46
2019-01-28T00:48:26.905Z,98544.16
2019-01-28T00:51:01.643Z,98543.26
2019-01-28T00:53:33.824Z,98545.45
2019-01-28T00:56:04.443Z,98548.95
2019-01-28T00:58:54.174Z,98547.19
2019-01-28T01:01:27.016Z,98551.42
2019-01-28T01:03:57.700Z,98551.05
2019-01-28T01:06:32.809Z,98554.89
2019-01-28T01:09:03.022Z,98554.97
2019-01-28T01:11:36.278Z,98560.13
2019-01-28T01:14:11.831Z,98562.38
2019-01-28T01:16:45.545Z,98566.63
2019-01-28T01:19:27.458Z,98577.83
2019-01-28T01:21:59.197Z,98585.59
2019-01-28T01:24:32.917Z,98581.34
2019-01-28T01:27:16.536Z,98583.05
2019-01-28T01:29:49.587Z,98583.94
2019-01-28T01:32:24.049Z,98588.63
2019-01-28T01:35:04.500Z,98593.83
2019-01-28T01:37:41.913Z,98602.77
2019-01-28T01:40:21.370Z,98601.83
2019-01-28T01:42:53.313Z,98600.52
2019-01-28T01:45:26.213Z,98595.73
2019-01-28T01:48:04.410Z,98605.23
2019-01-28T01:50:39.288Z,98609.09
2019-01-28T01:53:16.492Z,98608.22
2019-01-28T01:55:46.830Z,98606.10
2019-01-28T01:58:20.426Z,98608.26
2019-01-28T02:00:54.068Z,98607.42
2019-01-28T02:03:26.421Z,98613.39
2019-01-28T02:06:07.026Z,98612.97
2019-01-28T02:08:41.280Z,98615.53
2019-01-28T02:11:20.897Z,98619.39
2019-01-28T02:13:57.193Z,98620.69
2019-01-28T02:16:33.838Z,98628.40
2019-01-28T02:19:13.920Z,98625.52
2019-01-28T02:21:48.967Z,98624.62
2019-01-28T02:24:22.002Z,98630.12
2019-01-28T02:27:00.224Z,98628.08
2019-01-28T02:29:32.481Z,98638.78
2019-01-28T02:32:09.018Z,98637.96
2019-01-28T02:34:48.050Z,98646.18
2019-01-28T02:37:15.270Z,98642.70
2019-01-28T02:39:47.304Z,98648.67
2019-01-28T02:42:36.285Z,98646.53
2019-01-28T02:45:08.711Z,98653.08
2019-01-28T02:47:46.980Z,98654.77
2019-01-28T02:50:18.773Z,98654.39
2019-01-28T02:52:53.088Z,98655.59
2019-01-28T02:55:27.983Z,98662.89
2019-01-28T02:58:17.663Z,98665.91
2019-01-28T03:00:38.834Z,98665.56
2019-01-28T03:03:17.555Z,98667.67
2019-01-28T03:05:57.545Z,98659.09
2019-01-28T03:08:27.380Z,98660.44
2019-01-28T03:11:00.198Z,98657.92
2019-01-28T03:13:37.511Z,98661.36
2019-01-28T03:16:07.196Z,98660.09
2019-01-28T03:18:40.565Z,98663.92
2019-01-28T03:21:13.673Z,98668.70
2019-01-28T03:23:46.128Z,98668.67
2019-01-28T03:26:15.914Z,98674.66
2019-01-28T03:28:51.136Z,98671.31
2019-01-28T03:31:23.321Z,98671.25
2019-01-28T03:33:53.259Z,98674.29
2019-01-28T03:36:22.635Z,98677.28
2019-01-28T03:38:55.455Z,98685.45
2019-01-28T03:41:28.853Z,98679.45
2019-01-28T03:44:03.237Z,98688.52
2019-01-28T03:46:39.333Z,98683.34
2019-01-28T03:49:08.358Z,98683.79
2019-01-28T03:51:45.427Z,98685.05
2019-01-28T03:54:16.255Z,98683.77
2019-01-28T03:56:49.040Z,98691.90
2019-01-28T03:59:25.891Z,98684.17
2019-01-28T04:01:56.882Z,98688.04
2019-01-28T04:04:31.710Z,98689.33
2019-01-28T04:07:00.845Z,98692.32
2019-01-28T04:09:33.412Z,98694.95
2019-01-28T04:12:11.107Z,98697.09
2019-01-28T04:14:41.174Z,98695.86
2019-01-28T04:17:12.269Z,98698.45
2019-01-28T04:19:46.120Z,98696.73
2019-01-28T04:22:14.868Z,98704.05
2019-01-28T04:24:45.104Z,98701.54
2019-01-28T04:27:19.325Z,98706.69
2019-01-28T04:29:49.985Z,98718.66
2019-01-28T04:32:25.191Z,98718.25
2019-01-28T04:34:56.855Z,98714.83
2019-01-28T04:37:30.393Z,98725.12
2019-01-28T04:40:06.419Z,98743.54
2019-01-28T04:42:40.220Z,98735.42
2019-01-28T04:45:13.858Z,98738.42
2019-01-28T04:47:44.889Z,98744.86
2019-01-28T04:50:16.741Z,98744.86
2019-01-28T04:52:52.381Z,98751.27
2019-01-28T04:55:20.019Z,98752.97
2019-01-28T04:57:59.749Z,98748.28
2019-01-28T05:00:31.178Z,98758.98
2019-01-28T05:03:00.794Z,98752.97
2019-01-28T05:05:35.570Z,98770.55
2019-01-28T05:08:06.510Z,98773.08
2019-01-28T05:10:40.027Z,98772.67
2019-01-28T05:13:14.365Z,98770.95
2019-01-28T05:15:44.023Z,98767.53
2019-01-28T05:18:26.109Z,98767.95
2019-01-28T05:21:01.921Z,98765.83
2019-01-28T05:23:35.242Z,98764.53
2019-01-28T05:26:07.089Z,98768.38
2019-01-28T05:28:39.313Z,98767.11
2019-01-28T05:31:09.670Z,98765.39
2019-01-28T05:33:46.145Z,98769.66
2019-01-28T05:36:13.483Z,98772.19
2019-01-28T05:38:45.004Z,98778.17
2019-01-28T05:41:19.084Z,98777.77
2019-01-28T05:43:50.081Z,98776.06
2019-01-28T05:46:23.219Z,98781.22
2019-01-28T05:48:53.878Z,98782.48
2019-01-28T05:51:22.539Z,98788.48
2019-01-28T05:53:59.249Z,98789.33
2019-01-28T05:56:38.818Z,98790.16
2019-01-28T05:59:23.226Z,98795.30
2019-01-28T06:02:14.063Z,98796.17
2019-01-28T06:05:06.931Z,98800.45
2019-01-28T06:08:48.732Z,98791.91
2019-01-28T06:13:13.778Z,98786.77
2019-01-28T06:28:01.257Z,98794.05
2019-01-28T06:32:12.591Z,98795.34
2019-01-28T06:42:59.352Z,98812.45
2019-01-28T06:48:32.586Z,98816.75
2019-01-28T06:56:09.940Z,98813.33
2019-01-28T07:07:28.961Z,98824.04
2019-01-28T07:16:05.437Z,98829.15
2019-01-28T07:29:00.489Z,98841.97
2019-01-28T07:29:19.880Z,98858.64
2019-01-28T07:32:45.871Z,98861.18
2019-01-28T07:53:31.345Z,98874.90
2019-01-28T07:56:07.835Z,98875.78
2019-01-28T08:24:08.378Z,98879.67
2019-01-28T08:27:56.525Z,98886.93
2019-01-28T08:31:36.515Z,98882.19
2019-01-28T08:34:40.723Z,98889.05
2019-01-28T08:46:57.365Z,98892.48
2019-01-28T08:50:29.735Z,98894.95
2019-01-28T08:52:12.785Z,98890.32
2019-01-28T08:54:35.230Z,98892.47
2019-01-28T08:57:36.582Z,98888.02
2019-01-28T09:00:56.643Z,98892.61
2019-01-28T09:03:43.175Z,98889.70
2019-01-28T09:10:47.887Z,98887.17
2019-01-28T09:17:20.264Z,98890.92
2019-01-28T09:20:27.532Z,98892.21
2019-01-28T09:23:16.246Z,98889.81
2019-01-28T09:26:06.778Z,98896.90
2019-01-28T09:29:06.062Z,98901.11
2019-01-28T09:32:11.399Z,98913.30
2019-01-28T09:34:33.944Z,98916.75
2019-01-28T09:37:20.369Z,98915.48
2019-01-28T09:40:14.094Z,98921.13
2019-01-28T09:43:33.572Z,98921.14
2019-01-28T09:47:28.945Z,98926.70
2019-01-28T09:49:37.801Z,98922.48
2019-01-28T09:52:30.906Z,98927.63
2019-01-28T10:02:54.220Z,98936.19
2019-01-28T10:05:56.085Z,98940.89
2019-01-28T10:08:54.640Z,98938.31
2019-01-28T10:11:49.742Z,98941.75
2019-01-28T10:14:50.912Z,98951.60
2019-01-28T10:17:25.628Z,98949.88
2019-01-28T10:20:58.144Z,98949.87
2019-01-28T10:24:04.525Z,98943.02
2019-01-28T10:29:53.653Z,98946.45
2019-01-28T10:32:56.246Z,98947.30
2019-01-28T10:36:01.046Z,98946.45
2019-01-28T10:39:31.461Z,98942.59
2019-01-28T10:41:54.863Z,98946.46
2019-01-28T10:45:01.469Z,98946.88
2019-01-28T10:47:48.758Z,98945.17
2019-01-28T10:50:46.722Z,98955.04
2019-01-28T10:53:38.183Z,98948.61
2019-01-28T10:56:38.187Z,98945.60
2019-01-28T11:00:17.969Z,98949.03
2019-01-28T11:07:34.287Z,98942.58
2019-01-28T11:10:11.772Z,98949.03
2019-01-28T11:12:58.039Z,98948.59
2019-01-28T11:15:39.042Z,98945.17
2019-01-28T11:18:39.659Z,98946.42
2019-01-28T11:21:18.146Z,98945.59
2019-01-28T11:26:57.445Z,98949.44
2019-01-28T11:30:11.625Z,98948.17
2019-01-28T11:33:00.974Z,98951.16
2019-01-28T11:35:43.508Z,98954.13
2019-01-28T11:38:36.837Z,98948.57
2019-01-28T11:41:30.324Z,98949.85
2019-01-28T11:44:30.398Z,98954.59
2019-01-28T11:52:11.222Z,98952.86
2019-01-28T12:09:57.126Z,98973.41
2019-01-28T12:16:45.928Z,98974.69
2019-01-28T12:19:53.855Z,98981.58
2019-01-28T12:23:16.794Z,98988.00
2019-01-28T12:29:36.296Z,98984.16
2019-01-28T12:32:18.789Z,98984.62
2019-01-28T12:35:12.323Z,98989.30
2019-01-28T12:37:55.484Z,98985.01
2019-01-28T12:40:51.321Z,98990.98
2019-01-28T12:43:44.844Z,98988.83
2019-01-28T12:49:50.442Z,98986.73
2019-01-28T12:52:32.218Z,98994.00
2019-01-28T12:57:40.257Z,98997.45
2019-01-28T12:59:26.143Z,99006.04
2019-01-28T13:02:32.308Z,99001.72
2019-01-28T13:06:45.517Z,99007.72
2019-01-28T13:07:49.709Z,99011.59
2019-01-28T13:10:56.579Z,99011.56
2019-01-28T13:16:46.254Z,99009.02
2019-01-28T13:22:55.153Z,99012.00
2019-01-28T13:25:45.644Z,99010.28
2019-01-28T13:28:58.038Z,99017.60
2019-01-28T13:31:57.608Z,99016.75
2019-01-28T13:34:51.560Z,99021.47
2019-01-28T13:37:44.193Z,99018.87
2019-01-28T13:41:06.724Z,99027.03
2019-01-28T13:43:27.791Z,99027.47
2019-01-28T13:46:24.579Z,99027.47
2019-01-28T13:49:37.874Z,99032.62
2019-01-28T13:55:16.238Z,99024.86
2019-01-28T13:58:19.239Z,99035.58
2019-01-28T14:04:06.885Z,99043.30
2019-01-28T14:06:54.240Z,99044.12
2019-01-28T14:12:51.803Z,99057.03
2019-01-28T14:16:29.997Z,99060.05
2019-01-28T14:19:25.831Z,99062.63
2019-01-28T14:22:24.240Z,99068.61
2019-01-28T14:24:59.936Z,99072.91
2019-01-28T14:27:49.784Z,99072.89
2019-01-28T14:31:44.678Z,99077.17
2019-01-28T14:34:15.139Z,99085.30
2019-01-28T14:36:55.550Z,99089.19
2019-01-28T14:40:13.701Z,99093.44
2019-01-28T14:43:01.950Z,99088.74
2019-01-28T14:49:32.230Z,99090.86
2019-01-28T14:51:53.542Z,99089.59
2019-01-28T15:35:28.756Z,99120.78
2019-01-28T15:45:38.136Z,99140.06
2019-01-28T15:48:07.174Z,99138.78
2019-01-28T15:50:36.556Z,99141.34
2019-01-28T15:53:15.011Z,99145.58
2019-01-28T15:55:54.649Z,99146.44
2019-01-28T15:58:23.120Z,99157.61
2019-01-28T16:00:52.052Z,99165.33
2019-01-28T16:03:28.624Z,99161.47
2019-01-28T16:06:00.697Z,99166.18
2019-01-28T16:08:37.233Z,99163.23
2019-01-28T16:11:12.535Z,99173.94
2019-01-28T16:13:43.721Z,99174.84
2019-01-28T16:16:13.082Z,99179.13
2019-01-28T16:18:42.413Z,99182.16
2019-01-28T16:21:11.373Z,99184.73
2019-01-28T16:23:40.265Z,99180.88
2019-01-28T16:26:10.833Z,99183.05
2019-01-28T16:28:39.992Z,99188.62
2019-01-28T16:31:08.763Z,99195.48
2019-01-28T16:33:42.088Z,99189.91
2019-01-28T16:36:11.411Z,99196.34
2019-01-28T16:38:42.276Z,99201.52
2019-01-28T16:41:11.094Z,99200.63
2019-01-28T16:43:40.702Z,99203.66
2019-01-28T16:46:09.984Z,99208.37
2019-01-28T16:48:39.476Z,99207.09
2019-01-28T16:51:09.598Z,99201.48
2019-01-28T16:53:38.171Z,99204.91
2019-01-28T16:56:07.935Z,99197.59
2019-01-28T16:58:38.335Z,99207.83
2019-01-28T17:01:07.489Z,99202.73
2019-01-28T17:03:36.469Z,99204.02
2019-01-28T17:06:06.263Z,99205.70
2019-01-28T17:08:35.176Z,99209.59
2019-01-28T17:11:04.761Z,99207.48
2019-01-28T17:13:33.669Z,99214.27
2019-01-28T17:16:02.653Z,99210.84
2019-01-28T17:18:31.295Z,99205.69
2019-01-28T17:21:00.459Z,99210.41
2019-01-28T17:23:29.094Z,99222.40
2019-01-28T17:25:58.031Z,99227.92
2019-01-28T17:28:26.932Z,99225.73
2019-01-28T17:30:55.729Z,99228.34
2019-01-28T17:33:24.386Z,99232.25
2019-01-28T17:35:53.346Z,99233.07
2019-01-28T17:38:22.234Z,99227.07
2019-01-28T17:40:51.001Z,99234.78
2019-01-28T17:43:19.893Z,99238.14
2019-01-28T17:45:48.839Z,99236.86
2019-01-28T17:48:18.662Z,99241.13
2019-01-28T17:50:49.168Z,99240.70
2019-01-28T17:53:18.256Z,99245.11
2019-01-28T17:55:46.929Z,99245.11
2019-01-28T17:58:15.978Z,99245.13
2019-01-28T18:00:58.529Z,99244.73
2019-01-28T18:03:27.309Z,99246.45
2019-01-28T18:05:56.414Z,99252.40
2019-01-28T18:08:25.265Z,99251.11
2019-01-28T18:10:54.875Z,99254.91
2019-01-28T18:13:24.440Z,99256.53
2019-01-28T18:15:53.532Z,99255.64
2019-01-28T18:18:22.820Z,99253.13
2019-01-28T18:20:52.249Z,99259.63
2019-01-28T18:23:31.578Z,99257.84
2019-01-28T18:26:01.437Z,99263.05
2019-01-28T18:28:30.639Z,99262.61
2019-01-28T18:30:59.818Z,99266.52
2019-01-28T18:33:28.677Z,99267.77
2019-01-28T18:36:05.366Z,99266.89
2019-01-28T18:38:28.639Z,99269.81
2019-01-28T18:40:57.949Z,99270.17
2019-01-28T18:43:27.552Z,99271.52
2019-01-28T18:45:56.450Z,99274.12
2019-01-28T18:48:27.167Z,99272.89
2019-01-28T18:50:59.647Z,99265.61
2019-01-28T18:53:30.438Z,99263.85
2019-01-28T18:55:59.888Z,99273.25
2019-01-28T18:58:28.606Z,99271.11
2019-01-28T19:00:57.286Z,99271.98
2019-01-28T19:03:26.295Z,99275.47
2019-01-28T19:05:59.481Z,99277.19
2019-01-28T19:08:53.162Z,99278.96
2019-01-28T19:11:27.824Z,99285.75
2019-01-28T19:14:05.749Z,99291.38
2019-01-28T19:16:52.771Z,99290.02
2019-01-28T19:19:34.153Z,99298.53
2019-01-28T19:25:23.676Z,99293.41
2019-01-28T19:27:53.043Z,99305.90
2019-01-28T19:30:24.268Z,99306.80
2019-01-28T20:57:00.757Z,99415.20
